weather.gov     
National Weather Service

Terminal Aerodrome Forecast
NWS Homepage
This page is being discontinued on March 12, 2014.
The same data is available at this site. Please update your bookmarks.
Thank you, and we apologize for the inconvenience.
Please send an email to SR-SRH.Webmaster@noaa.gov with any concerns.


Current Version
Previous Version:    01  02  03  04  05  06  07  08  09  10  11  12  13  14  15  16  17  18  19  20  21  22  23  24  25  26  27  28  29  30  
   31  
[Printable]
718
FTAK31 PAJN 191100
TAFAKT
TAF
PAKT 191120Z 1912/2012 14010G20KT P6SM -RA OVC040 WS020/12035KT
     FM191600 15018G28KT P6SM -RA BKN030 OVC050
     FM200100 16020G34KT P6SM -RA BKN025 OVC040 WS020/14040KT
     FM200800 16018G28KT P6SM -RA BKN015 OVC025
      AMD LTD TO CLD VIS AND WIND 1912/1915=


U.S. Dept. of Commerce
NOAA National Weather Service
1325 East West Highway
Silver Spring, MD 20910
E-mail: w-nws.webmaster@noaa.gov
Page last modified: May 16, 2007
NATIONAL WEATHER SERVICE: for Safety, for Work, for Fun - FOR LIFE